createdAt,value
2022-12-11T00:00:39.936Z,-0.3
2022-12-11T00:01:39.981Z,-0.3
2022-12-11T00:02:39.998Z,-0.2
2022-12-11T00:03:40.044Z,-0.2
2022-12-11T00:04:40.024Z,-0.1
2022-12-11T00:05:40.004Z,0
2022-12-11T00:06:40.018Z,-0.1
2022-12-11T00:07:39.979Z,-0.1
2022-12-11T00:08:40.015Z,-0.1
2022-12-11T00:09:40.031Z,0.1
2022-12-11T00:10:40.045Z,0.1
2022-12-11T00:11:39.945Z,0.1
2022-12-11T00:12:39.938Z,0.1
2022-12-11T00:13:40.026Z,0
2022-12-11T00:14:40.066Z,-0.2
2022-12-11T00:15:39.966Z,-0.3
2022-12-11T00:16:39.955Z,-0.2
2022-12-11T00:17:39.984Z,-0.1
2022-12-11T00:18:39.980Z,0
2022-12-11T00:19:39.984Z,-0.1
2022-12-11T00:20:39.995Z,-0.2
2022-12-11T00:21:39.999Z,-0.3
2022-12-11T00:22:40.038Z,-0.4
2022-12-11T00:23:40.017Z,-0.5
2022-12-11T00:24:40.020Z,-0.5
2022-12-11T00:25:39.932Z,-0.5
2022-12-11T00:26:39.942Z,-0.6
2022-12-11T00:27:40.043Z,-0.4
2022-12-11T00:28:40.010Z,-0.4
2022-12-11T00:29:40.019Z,-0.3
2022-12-11T00:30:40.055Z,-0.2
2022-12-11T00:31:40.016Z,0
2022-12-11T00:32:39.971Z,0.1
2022-12-11T00:33:39.966Z,0.1
2022-12-11T00:34:39.985Z,0.1
2022-12-11T00:35:39.991Z,0.1
2022-12-11T00:36:40.009Z,0
2022-12-11T00:37:40.058Z,-0.1
2022-12-11T00:38:40.040Z,-0.1
2022-12-11T00:39:39.946Z,-0.2
2022-12-11T00:40:39.942Z,-0.3
2022-12-11T00:41:40.035Z,-0.3
2022-12-11T00:42:40.035Z,-0.3
2022-12-11T00:43:39.969Z,-0.4
2022-12-11T00:44:40.041Z,-0.4
2022-12-11T00:45:40.165Z,-0.3
2022-12-11T00:46:40.068Z,-0.2
2022-12-11T00:47:39.977Z,-0.2
2022-12-11T00:48:39.990Z,-0.4
2022-12-11T00:49:42.896Z,-0.3
2022-12-11T00:50:39.942Z,-0.4
2022-12-11T00:51:39.978Z,-0.5
2022-12-11T00:52:39.929Z,-0.5
2022-12-11T00:53:40.002Z,-0.4
2022-12-11T00:54:40.033Z,-0.4
2022-12-11T00:55:40.040Z,-0.3
2022-12-11T00:56:40.038Z,-0.3
2022-12-11T00:57:40.039Z,-0.3
2022-12-11T00:58:39.984Z,-0.2
2022-12-11T00:59:40.075Z,-0.1
2022-12-11T01:00:39.984Z,-0.1
2022-12-11T01:01:40.112Z,-0.1
2022-12-11T01:02:40.114Z,-0.2
2022-12-11T01:03:39.966Z,-0.2
2022-12-11T01:04:39.933Z,-0.2
2022-12-11T01:05:39.980Z,-0.3
2022-12-11T01:06:39.924Z,-0.3
2022-12-11T01:07:39.997Z,-0.3
2022-12-11T01:08:39.999Z,-0.2
2022-12-11T01:09:40.003Z,-0.2
2022-12-11T01:10:40.072Z,-0.1
2022-12-11T01:11:40.025Z,0
2022-12-11T01:12:40.030Z,-0.1
2022-12-11T01:13:40.072Z,-0.3
2022-12-11T01:14:39.947Z,-0.3
2022-12-11T01:15:41.594Z,-0.4
2022-12-11T01:16:39.969Z,-0.5
2022-12-11T01:17:40.063Z,-0.4
2022-12-11T01:18:39.970Z,-0.4
2022-12-11T01:19:39.927Z,-0.5
2022-12-11T01:20:40.189Z,-0.4
2022-12-11T01:21:40.264Z,-0.4
2022-12-11T01:22:40.311Z,-0.6
2022-12-11T01:23:40.258Z,-0.6
2022-12-11T01:24:40.267Z,-0.6
2022-12-11T01:25:40.290Z,-0.7
2022-12-11T01:26:40.416Z,-0.7
2022-12-11T01:27:40.028Z,-0.7
2022-12-11T01:28:40.033Z,-0.7
2022-12-11T01:29:39.929Z,-0.7
2022-12-11T01:30:39.958Z,-0.8
2022-12-11T01:31:39.970Z,-0.7
2022-12-11T01:32:39.964Z,-0.7
2022-12-11T01:33:40.155Z,-0.7
2022-12-11T01:34:39.962Z,-0.8
2022-12-11T01:35:39.983Z,-0.8
2022-12-11T01:36:39.969Z,-0.7
2022-12-11T01:37:39.987Z,-0.7
2022-12-11T01:38:40.010Z,-0.8
2022-12-11T01:39:40.004Z,-0.8
2022-12-11T01:40:40.023Z,-0.9
2022-12-11T01:41:39.967Z,-0.9
2022-12-11T01:42:39.917Z,-0.9
2022-12-11T01:43:40.097Z,-0.9
2022-12-11T01:44:39.917Z,-0.9
2022-12-11T01:45:40.035Z,-0.9
2022-12-11T01:46:39.944Z,-0.8
2022-12-11T01:47:39.942Z,-0.8
2022-12-11T01:48:42.406Z,-0.8
2022-12-11T01:49:40.063Z,-0.7
2022-12-11T01:50:39.914Z,-0.8
2022-12-11T01:51:39.971Z,-0.8
2022-12-11T01:52:40.030Z,-0.7
2022-12-11T01:53:40.089Z,-0.6
2022-12-11T01:54:39.975Z,-0.6
2022-12-11T01:55:39.997Z,-0.6
2022-12-11T01:56:39.973Z,-0.5
2022-12-11T01:57:40.006Z,-0.6
2022-12-11T01:58:40.011Z,-0.7
2022-12-11T01:59:40.036Z,-0.6
2022-12-11T02:00:40.034Z,-0.5
2022-12-11T02:01:40.006Z,-0.5
2022-12-11T02:02:40.054Z,-0.4
2022-12-11T02:03:40.044Z,-0.4
2022-12-11T02:04:40.046Z,-0.3
2022-12-11T02:05:40.071Z,-0.4
2022-12-11T02:06:39.965Z,-0.4
2022-12-11T02:07:39.990Z,-0.4
2022-12-11T02:08:40.133Z,-0.4
2022-12-11T02:09:39.939Z,-0.3
2022-12-11T02:10:39.912Z,-0.3
2022-12-11T02:11:39.993Z,-0.2
2022-12-11T02:12:39.999Z,-0.3
2022-12-11T02:13:39.941Z,-0.3
2022-12-11T02:14:40.027Z,-0.3
2022-12-11T02:15:39.920Z,-0.3
2022-12-11T02:16:40.077Z,-0.3
2022-12-11T02:17:39.939Z,-0.2
2022-12-11T02:18:40.036Z,-0.2
2022-12-11T02:19:40.071Z,-0.2
2022-12-11T02:20:40.054Z,-0.3
2022-12-11T02:21:39.930Z,-0.3
2022-12-11T02:22:39.926Z,-0.2
2022-12-11T02:23:40.053Z,0
2022-12-11T02:24:39.982Z,0
2022-12-11T02:25:39.998Z,0
2022-12-11T02:26:40.005Z,0.1
2022-12-11T02:27:40.104Z,0.1
2022-12-11T02:28:40.047Z,0
2022-12-11T02:29:40.007Z,0
2022-12-11T02:30:40.022Z,0
2022-12-11T02:31:40.154Z,0
2022-12-11T02:32:39.931Z,0
2022-12-11T02:33:40.082Z,0
2022-12-11T02:34:39.916Z,-0.1
2022-12-11T02:35:40.058Z,-0.1
2022-12-11T02:36:40.057Z,-0.1
2022-12-11T02:37:39.917Z,-0.2
2022-12-11T02:38:40.003Z,-0.2
2022-12-11T02:39:39.975Z,-0.2
2022-12-11T02:40:39.982Z,-0.2
2022-12-11T02:41:39.998Z,-0.2
2022-12-11T02:42:39.990Z,-0.2
2022-12-11T02:43:40.049Z,-0.3
2022-12-11T02:44:40.018Z,-0.2
2022-12-11T02:45:40.068Z,0
2022-12-11T02:46:39.912Z,-0.1
2022-12-11T02:47:39.918Z,-0.2
2022-12-11T02:48:40.147Z,-0.2
2022-12-11T02:49:39.971Z,-0.3
2022-12-11T02:50:39.922Z,-0.1
2022-12-11T02:51:40.059Z,-0.1
2022-12-11T02:52:40.053Z,0.1
2022-12-11T02:53:40.045Z,0
2022-12-11T02:54:39.968Z,0
2022-12-11T02:55:39.996Z,0
2022-12-11T02:56:39.907Z,-0.2
2022-12-11T02:57:39.912Z,-0.1
2022-12-11T02:58:40.040Z,0.1
2022-12-11T02:59:39.996Z,0.1
2022-12-11T03:00:40.020Z,0
2022-12-11T03:01:39.983Z,-0.1
2022-12-11T03:02:40.055Z,-0.1
2022-12-11T03:03:40.143Z,-0.2
2022-12-11T03:04:39.933Z,-0.1
2022-12-11T03:05:39.899Z,-0.1
2022-12-11T03:06:39.941Z,-0.1
2022-12-11T03:07:40.011Z,0
2022-12-11T03:08:40.183Z,0
2022-12-11T03:09:39.953Z,0
2022-12-11T03:10:40.067Z,0.1
2022-12-11T03:11:40.031Z,0.1
2022-12-11T03:12:40.088Z,0.1
2022-12-11T03:13:40.327Z,0.1
2022-12-11T03:14:40.189Z,0
2022-12-11T03:15:40.232Z,0.1
2022-12-11T03:16:40.209Z,0.1
2022-12-11T03:17:40.217Z,0.1
2022-12-11T03:18:40.428Z,0.2
2022-12-11T03:19:40.275Z,0
2022-12-11T03:20:39.928Z,0
2022-12-11T03:21:40.299Z,0
2022-12-11T03:22:40.354Z,0.1
2022-12-11T03:23:39.977Z,0.1
2022-12-11T03:24:39.906Z,0.1
2022-12-11T03:25:40.064Z,0
2022-12-11T03:26:39.910Z,0
2022-12-11T03:27:39.911Z,0
2022-12-11T03:28:39.999Z,-0.1
2022-12-11T03:29:39.914Z,0
2022-12-11T03:30:40.055Z,0
2022-12-11T03:31:40.035Z,0.1
2022-12-11T03:32:40.013Z,0.1
2022-12-11T03:33:40.001Z,0.1
2022-12-11T03:34:39.918Z,0.1
2022-12-11T03:35:39.950Z,0.2
2022-12-11T03:36:39.939Z,0.2
2022-12-11T03:37:39.929Z,0.2
2022-12-11T03:38:40.034Z,0.2
2022-12-11T03:39:40.047Z,0.1
2022-12-11T03:40:39.954Z,0.1
2022-12-11T03:41:39.960Z,0.2
2022-12-11T03:42:39.919Z,0.1
2022-12-11T03:43:39.978Z,0.1
2022-12-11T03:44:39.965Z,0.2
2022-12-11T03:45:39.972Z,0.2
2022-12-11T03:46:39.957Z,0.2
2022-12-11T03:47:40.015Z,0.1
2022-12-11T03:48:40.012Z,0.1
2022-12-11T03:49:39.916Z,0
2022-12-11T03:50:40.021Z,0.1
2022-12-11T03:51:39.916Z,0
2022-12-11T03:52:45.571Z,-0.1
2022-12-11T03:53:39.940Z,-0.3
2022-12-11T03:54:39.961Z,-0.2
2022-12-11T03:55:39.947Z,0
2022-12-11T03:56:40.121Z,0
2022-12-11T03:57:40.218Z,0
2022-12-11T03:58:39.924Z,-0.1
2022-12-11T03:59:39.945Z,-0.2
2022-12-11T04:00:39.995Z,-0.2
2022-12-11T04:01:40.116Z,-0.2
2022-12-11T04:02:39.992Z,-0.2
2022-12-11T04:03:40.004Z,-0.2
2022-12-11T04:04:40.119Z,-0.1
2022-12-11T04:05:39.910Z,0
2022-12-11T04:06:40.056Z,-0.1
2022-12-11T04:07:39.933Z,0
2022-12-11T04:08:39.907Z,0.1
2022-12-11T04:09:39.948Z,0
2022-12-11T04:10:39.949Z,0
2022-12-11T04:11:39.912Z,0
2022-12-11T04:12:39.924Z,0
2022-12-11T04:13:39.904Z,0
2022-12-11T04:14:39.909Z,0.2
2022-12-11T04:15:40.042Z,0.1
2022-12-11T04:16:39.899Z,0.1
2022-12-11T04:17:39.945Z,0
2022-12-11T04:18:39.946Z,0
2022-12-11T04:19:39.918Z,0
2022-12-11T04:20:39.917Z,0
2022-12-11T04:21:40.081Z,0
2022-12-11T04:22:39.904Z,0
2022-12-11T04:23:39.899Z,0
2022-12-11T04:24:39.906Z,0
2022-12-11T04:25:40.043Z,0.1
2022-12-11T04:26:40.056Z,0.1
2022-12-11T04:27:39.948Z,0.2
2022-12-11T04:28:39.958Z,0.2
2022-12-11T04:29:39.970Z,0.1
2022-12-11T04:30:39.976Z,0
2022-12-11T04:31:39.988Z,0
2022-12-11T04:32:39.992Z,0.1
2022-12-11T04:33:39.993Z,0.1
2022-12-11T04:34:40.000Z,0.1
2022-12-11T04:35:39.993Z,0.1
2022-12-11T04:36:40.005Z,0.1
2022-12-11T04:37:39.948Z,0.1
2022-12-11T04:38:39.908Z,0
2022-12-11T04:39:39.924Z,0.1
2022-12-11T04:40:39.936Z,0
2022-12-11T04:41:40.045Z,0
2022-12-11T04:42:39.947Z,-0.1
2022-12-11T04:43:39.956Z,0
2022-12-11T04:44:39.955Z,0
2022-12-11T04:45:39.971Z,0.1
2022-12-11T04:46:40.038Z,0
2022-12-11T04:47:39.976Z,-0.2
2022-12-11T04:48:39.905Z,-0.2
2022-12-11T04:49:39.992Z,-0.1
2022-12-11T04:50:39.900Z,-0.1
2022-12-11T04:51:40.005Z,-0.1
2022-12-11T04:52:40.007Z,-0.1
2022-12-11T04:53:39.956Z,-0.1
2022-12-11T04:54:39.882Z,-0.1
2022-12-11T04:55:39.895Z,0
2022-12-11T04:56:39.947Z,0.1
2022-12-11T04:57:39.953Z,0
2022-12-11T04:58:39.894Z,0.1
2022-12-11T04:59:39.902Z,0.1
2022-12-11T05:00:39.908Z,0.2
2022-12-11T05:01:39.979Z,0.2
2022-12-11T05:02:39.918Z,0.3
2022-12-11T05:03:39.909Z,0.3
2022-12-11T05:04:39.986Z,0.4
2022-12-11T05:05:39.985Z,0.3
2022-12-11T05:06:39.991Z,0.4
2022-12-11T05:07:39.999Z,0.3
2022-12-11T05:08:39.927Z,0.3
2022-12-11T05:09:39.897Z,0.4
2022-12-11T05:10:39.909Z,0.3
2022-12-11T05:11:39.933Z,0.3
2022-12-11T05:12:40.036Z,0.3
2022-12-11T05:13:39.940Z,0.3
2022-12-11T05:14:39.953Z,0.2
2022-12-11T05:15:40.042Z,0.1
2022-12-11T05:16:39.965Z,0
2022-12-11T05:17:39.976Z,0.1
2022-12-11T05:18:39.969Z,0.2
2022-12-11T05:19:39.980Z,0.2
2022-12-11T05:20:39.978Z,0.2
2022-12-11T05:21:39.947Z,0.2
2022-12-11T05:22:39.889Z,0.2
2022-12-11T05:23:40.036Z,0.2
2022-12-11T05:24:39.893Z,0.3
2022-12-11T05:25:39.909Z,0.2
2022-12-11T05:26:40.017Z,0.3
2022-12-11T05:27:39.897Z,0.2
2022-12-11T05:28:40.037Z,0.2
2022-12-11T05:29:39.933Z,0.3
2022-12-11T05:30:39.953Z,0.3
2022-12-11T05:31:40.037Z,0.3
2022-12-11T05:32:39.904Z,0.3
2022-12-11T05:33:39.955Z,0.3
2022-12-11T05:34:39.976Z,0.2
2022-12-11T05:35:39.915Z,0.2
2022-12-11T05:36:39.980Z,0.2
2022-12-11T05:37:40.002Z,0.3
2022-12-11T05:38:39.992Z,0.3
2022-12-11T05:39:39.924Z,0.1
2022-12-11T05:40:39.968Z,0.1
2022-12-11T05:41:39.886Z,0.2
2022-12-11T05:42:39.917Z,0.2
2022-12-11T05:43:39.959Z,0.1
2022-12-11T05:44:39.939Z,0.1
2022-12-11T05:45:39.899Z,0.1
2022-12-11T05:46:39.951Z,0.2
2022-12-11T05:47:39.896Z,0.2
2022-12-11T05:48:39.888Z,0.1
2022-12-11T05:49:39.890Z,0.2
2022-12-11T05:50:39.893Z,0.1
2022-12-11T05:51:39.980Z,0.2
2022-12-11T05:52:39.952Z,0.2
2022-12-11T05:53:39.898Z,0.3
2022-12-11T05:54:39.935Z,0.2
2022-12-11T05:55:39.891Z,0.2
2022-12-11T05:56:39.893Z,0.3
2022-12-11T05:57:39.918Z,0.3
2022-12-11T05:58:39.902Z,0.4
2022-12-11T05:59:39.965Z,0.4
2022-12-11T06:00:39.928Z,0.3
2022-12-11T06:01:40.002Z,0.3
2022-12-11T06:02:40.009Z,0.2
2022-12-11T06:03:39.891Z,0.2
2022-12-11T06:04:39.923Z,0.2
2022-12-11T06:05:39.954Z,0.2
2022-12-11T06:06:39.899Z,0.2
2022-12-11T06:07:39.948Z,0.3
2022-12-11T06:08:39.925Z,0.3
2022-12-11T06:09:39.904Z,0.2
2022-12-11T06:10:39.931Z,0.1
2022-12-11T06:11:39.893Z,0.2
2022-12-11T06:12:39.886Z,0.3
2022-12-11T06:13:39.896Z,0.4
2022-12-11T06:14:39.910Z,0.4
2022-12-11T06:15:39.941Z,0.4
2022-12-11T06:16:39.987Z,0.3
2022-12-11T06:17:39.902Z,0.2
2022-12-11T06:18:39.894Z,0.3
2022-12-11T06:19:39.976Z,0.3
2022-12-11T06:20:39.914Z,0.2
2022-12-11T06:21:39.899Z,0.2
2022-12-11T06:22:39.944Z,0
2022-12-11T06:23:39.937Z,0.1
2022-12-11T06:24:39.893Z,0.1
2022-12-11T06:25:39.903Z,0.1
2022-12-11T06:26:39.879Z,0.2
2022-12-11T06:27:39.893Z,0.2
2022-12-11T06:28:39.888Z,0.2
2022-12-11T06:29:39.886Z,0.2
2022-12-11T06:30:39.942Z,0.2
2022-12-11T06:31:40.012Z,0.2
2022-12-11T06:32:39.910Z,0.3
2022-12-11T06:33:39.954Z,0.2
2022-12-11T06:34:39.905Z,0.2
2022-12-11T06:35:42.316Z,0.1
2022-12-11T06:36:39.893Z,0
2022-12-11T06:37:39.881Z,0.1
2022-12-11T06:38:39.963Z,0.2
2022-12-11T06:39:39.940Z,0.2
2022-12-11T06:40:39.892Z,0.2
2022-12-11T06:41:39.921Z,0.2
2022-12-11T06:42:39.905Z,0.2
2022-12-11T06:43:39.931Z,0.1
2022-12-11T06:44:39.906Z,0.2
2022-12-11T06:45:40.008Z,0.3
2022-12-11T06:46:40.052Z,0.3
2022-12-11T06:47:39.924Z,0.3
2022-12-11T06:48:39.887Z,0.2
2022-12-11T06:49:39.900Z,0.1
2022-12-11T06:50:39.884Z,0.2
2022-12-11T06:51:39.967Z,0.2
2022-12-11T06:52:39.886Z,0.2
2022-12-11T06:53:39.888Z,0.1
2022-12-11T06:54:39.919Z,0.1
2022-12-11T06:55:39.879Z,0.1
2022-12-11T06:56:39.949Z,0.1
2022-12-11T06:57:39.888Z,0.1
2022-12-11T06:58:39.964Z,0.2
2022-12-11T06:59:39.885Z,0.3
2022-12-11T07:00:39.943Z,0.2
2022-12-11T07:01:39.951Z,0.2
2022-12-11T07:02:39.976Z,0.1
2022-12-11T07:03:39.924Z,0.1
2022-12-11T07:04:39.919Z,0.2
2022-12-11T07:05:39.909Z,0.2
2022-12-11T07:06:39.889Z,0.3
2022-12-11T07:07:40.011Z,0.4
2022-12-11T07:08:39.948Z,0.3
2022-12-11T07:09:39.935Z,0.3
2022-12-11T07:10:39.977Z,0.3
2022-12-11T07:11:39.990Z,0.3
2022-12-11T07:12:40.020Z,0.2
2022-12-11T07:13:39.897Z,0.2
2022-12-11T07:14:39.899Z,0.2
2022-12-11T07:15:40.618Z,0.3
2022-12-11T07:16:39.952Z,0.4
2022-12-11T07:17:39.954Z,0.4
2022-12-11T07:18:40.019Z,0.4
2022-12-11T07:19:39.928Z,0.3
2022-12-11T07:20:39.933Z,0.4
2022-12-11T07:21:39.945Z,0.4
2022-12-11T07:22:46.014Z,0.4
2022-12-11T07:23:39.952Z,0.4
2022-12-11T07:24:39.897Z,0.4
2022-12-11T07:25:39.934Z,0.3
2022-12-11T07:26:39.924Z,0.3
2022-12-11T07:27:39.999Z,0.3
2022-12-11T07:28:39.990Z,0.3
2022-12-11T07:29:39.938Z,0.3
2022-12-11T07:30:39.883Z,0.2
2022-12-11T07:31:39.965Z,0.3
2022-12-11T07:32:39.947Z,0.3
2022-12-11T07:33:40.023Z,0.3
2022-12-11T07:34:39.924Z,0.3
2022-12-11T07:35:39.929Z,0.4
2022-12-11T07:36:39.926Z,0.4
2022-12-11T07:37:39.944Z,0.4
2022-12-11T07:38:39.949Z,0.4
2022-12-11T07:39:39.890Z,0.4
2022-12-11T07:40:39.951Z,0.4
2022-12-11T07:41:39.991Z,0.4
2022-12-11T07:42:45.796Z,0.4
2022-12-11T07:43:39.930Z,0.4
2022-12-11T07:44:39.893Z,0.4
2022-12-11T07:45:39.918Z,0.5
2022-12-11T07:46:39.905Z,0.6
2022-12-11T07:47:39.957Z,0.5
2022-12-11T07:48:40.139Z,0.5
2022-12-11T07:49:40.137Z,0.5
2022-12-11T07:50:40.139Z,0.4
2022-12-11T07:51:39.934Z,0.4
2022-12-11T07:52:39.931Z,0.4
2022-12-11T07:53:39.883Z,0.4
2022-12-11T07:54:39.974Z,0.4
2022-12-11T07:55:39.972Z,0.4
2022-12-11T07:56:42.988Z,0.3
2022-12-11T07:57:39.912Z,0.4
2022-12-11T07:58:39.975Z,0.5
2022-12-11T07:59:39.989Z,0.5
2022-12-11T08:00:39.987Z,0.5
2022-12-11T08:01:39.966Z,0.5
2022-12-11T08:02:40.088Z,0.4
2022-12-11T08:03:39.906Z,0.4
2022-12-11T08:04:39.915Z,0.5
2022-12-11T08:05:39.921Z,0.4
2022-12-11T08:06:39.926Z,0.5
2022-12-11T08:07:39.890Z,0.5
2022-12-11T08:08:39.933Z,0.5
2022-12-11T08:09:39.946Z,0.6
2022-12-11T08:10:39.972Z,0.5
2022-12-11T08:11:39.880Z,0.5
2022-12-11T08:12:39.965Z,0.5
2022-12-11T08:13:39.974Z,0.5
2022-12-11T08:14:40.006Z,0.5
2022-12-11T08:15:39.993Z,0.5
2022-12-11T08:16:40.014Z,0.4
2022-12-11T08:17:40.402Z,0.4
2022-12-11T08:18:39.992Z,0.5
2022-12-11T08:19:39.903Z,0.5
2022-12-11T08:20:40.011Z,0.5
2022-12-11T08:21:39.937Z,0.5
2022-12-11T08:22:39.928Z,0.5
2022-12-11T08:23:39.888Z,0.5
2022-12-11T08:24:39.865Z,0.5
2022-12-11T08:25:39.948Z,0.6
2022-12-11T08:26:39.978Z,0.5
2022-12-11T08:27:39.957Z,0.6
2022-12-11T08:28:39.963Z,0.5
2022-12-11T08:29:39.885Z,0.7
2022-12-11T08:30:39.987Z,0.7
2022-12-11T08:31:39.876Z,0.8
2022-12-11T08:32:39.872Z,0.6
2022-12-11T08:33:39.885Z,0.5
2022-12-11T08:34:39.881Z,0.5
2022-12-11T08:35:39.918Z,0.5
2022-12-11T08:36:39.906Z,0.5
2022-12-11T08:37:39.893Z,0.6
2022-12-11T08:38:39.885Z,0.6
2022-12-11T08:39:39.869Z,0.7
2022-12-11T08:40:39.883Z,0.6
2022-12-11T08:41:39.915Z,0.6
2022-12-11T08:42:39.863Z,0.7
2022-12-11T08:43:39.915Z,0.7
2022-12-11T08:44:39.922Z,0.6
2022-12-11T08:45:39.898Z,0.6
2022-12-11T08:46:39.891Z,0.7
2022-12-11T08:47:39.877Z,0.8
2022-12-11T08:48:39.863Z,1
2022-12-11T08:49:39.875Z,1
2022-12-11T08:50:39.869Z,0.9
2022-12-11T08:51:39.923Z,0.9
2022-12-11T08:52:39.947Z,0.9
2022-12-11T08:53:39.883Z,0.9
2022-12-11T08:54:39.869Z,1
2022-12-11T08:55:39.880Z,1
2022-12-11T08:56:39.899Z,1
2022-12-11T08:57:39.885Z,1
2022-12-11T08:58:39.914Z,1.1
2022-12-11T08:59:40.008Z,1
2022-12-11T09:00:40.028Z,0.9
2022-12-11T09:01:40.198Z,1
2022-12-11T09:02:40.035Z,1
2022-12-11T09:03:39.985Z,1
2022-12-11T09:04:39.984Z,1
2022-12-11T09:05:39.874Z,1
2022-12-11T09:06:40.006Z,1
2022-12-11T09:07:39.924Z,1.1
2022-12-11T09:08:40.115Z,1.1
2022-12-11T09:09:39.863Z,1.1
2022-12-11T09:10:40.270Z,1.3
2022-12-11T09:11:40.309Z,1.2
2022-12-11T09:12:40.428Z,1.1
2022-12-11T09:13:39.960Z,1.2
2022-12-11T09:14:39.959Z,1.2
2022-12-11T09:15:39.928Z,1.2
2022-12-11T09:16:39.893Z,1.3
2022-12-11T09:17:39.981Z,1
2022-12-11T09:18:39.987Z,1
2022-12-11T09:19:39.885Z,1
2022-12-11T09:20:39.990Z,1
2022-12-11T09:21:39.895Z,1
2022-12-11T09:22:40.009Z,1
2022-12-11T09:23:40.018Z,1.1
2022-12-11T09:24:39.876Z,1
2022-12-11T09:25:39.939Z,0.9
2022-12-11T09:26:39.942Z,1
2022-12-11T09:27:39.862Z,1
2022-12-11T09:28:44.402Z,1
2022-12-11T09:29:39.875Z,1.2
2022-12-11T09:30:40.026Z,1.2
2022-12-11T09:31:39.970Z,1.2
2022-12-11T09:32:39.883Z,1.1
2022-12-11T09:33:39.892Z,1.1
2022-12-11T09:34:40.005Z,1
2022-12-11T09:35:39.915Z,1
2022-12-11T09:36:39.936Z,1.1
2022-12-11T09:37:39.939Z,1.1
2022-12-11T09:38:40.007Z,1.1
2022-12-11T09:39:39.859Z,1.1
2022-12-11T09:40:40.067Z,1.2
2022-12-11T09:41:39.981Z,1.1
2022-12-11T09:42:40.025Z,1
2022-12-11T09:43:39.960Z,1
2022-12-11T09:44:40.167Z,1
2022-12-11T09:45:40.232Z,0.9
2022-12-11T09:46:40.137Z,0.9
2022-12-11T09:47:40.110Z,0.9
2022-12-11T09:48:40.147Z,1.1
2022-12-11T09:49:39.866Z,1
2022-12-11T09:50:40.284Z,1.1
2022-12-11T09:51:39.855Z,1
2022-12-11T09:52:39.880Z,1.1
2022-12-11T09:53:40.154Z,1
2022-12-11T09:54:39.911Z,1
2022-12-11T09:55:39.910Z,1.1
2022-12-11T09:56:39.932Z,1.2
2022-12-11T09:57:40.011Z,1.4
2022-12-11T09:58:39.940Z,1.4
2022-12-11T09:59:39.931Z,1.3
2022-12-11T10:00:39.865Z,1.4
2022-12-11T10:01:39.952Z,1.5
2022-12-11T10:02:40.037Z,1.4
2022-12-11T10:03:39.968Z,1.5
2022-12-11T10:04:39.853Z,1.5
2022-12-11T10:05:39.868Z,1.5
2022-12-11T10:06:40.095Z,1.5
2022-12-11T10:07:39.862Z,1.6
2022-12-11T10:08:39.868Z,1.5
2022-12-11T10:09:39.924Z,1.5
2022-12-11T10:10:40.009Z,1.5
2022-12-11T10:11:39.927Z,1.4
2022-12-11T10:12:39.883Z,1.4
2022-12-11T10:13:39.918Z,1.5
2022-12-11T10:14:39.982Z,1.6
2022-12-11T10:15:39.981Z,1.6
2022-12-11T10:16:39.949Z,1.4
2022-12-11T10:17:39.902Z,1.3
2022-12-11T10:18:39.986Z,1.3
2022-12-11T10:19:39.863Z,1.3
2022-12-11T10:20:39.975Z,1.3
2022-12-11T10:21:39.987Z,1.3
2022-12-11T10:22:39.888Z,1.2
2022-12-11T10:23:39.879Z,1.4
2022-12-11T10:25:09.986Z,1.3
2022-12-11T10:25:39.899Z,1.3
2022-12-11T10:26:39.909Z,1.4
2022-12-11T10:27:39.905Z,1.4
2022-12-11T10:28:39.910Z,1.4
2022-12-11T10:29:39.922Z,1.4
2022-12-11T10:30:39.934Z,1.5
2022-12-11T10:31:39.873Z,1.4
2022-12-11T10:32:39.939Z,1.4
2022-12-11T10:33:39.963Z,1.3
2022-12-11T10:34:39.958Z,1.3
2022-12-11T10:35:40.007Z,1.5
2022-12-11T10:36:39.892Z,1.5
2022-12-11T10:37:39.860Z,1.5
2022-12-11T10:38:39.880Z,1.6
2022-12-11T10:39:39.862Z,1.8
2022-12-11T10:40:39.912Z,1.9
2022-12-11T10:41:39.916Z,2.1
2022-12-11T10:42:45.448Z,2
2022-12-11T10:43:39.861Z,2
2022-12-11T10:44:39.905Z,2
2022-12-11T10:45:39.914Z,2.1
2022-12-11T10:46:39.958Z,2.2
2022-12-11T10:47:39.856Z,2.1
2022-12-11T10:48:45.257Z,2.2
2022-12-11T10:49:39.934Z,2.1
2022-12-11T10:50:39.869Z,2.1
2022-12-11T10:51:39.883Z,2
2022-12-11T10:52:39.868Z,2
2022-12-11T10:53:39.867Z,1.9
2022-12-11T10:54:39.853Z,2
2022-12-11T10:55:39.893Z,2
2022-12-11T10:56:39.989Z,1.9
2022-12-11T10:57:39.900Z,1.8
2022-12-11T10:58:39.852Z,1.9
2022-12-11T10:59:39.856Z,1.8
2022-12-11T11:00:39.912Z,1.9
2022-12-11T11:01:39.923Z,1.9
2022-12-11T11:02:39.920Z,1.9
2022-12-11T11:03:39.909Z,1.9
2022-12-11T11:04:39.895Z,1.9
2022-12-11T11:05:41.017Z,1.9
2022-12-11T11:06:39.892Z,1.9
2022-12-11T11:07:39.890Z,1.8
2022-12-11T11:08:39.858Z,1.8
2022-12-11T11:09:39.854Z,1.8
2022-12-11T11:10:39.865Z,1.8
2022-12-11T11:11:39.988Z,1.7
2022-12-11T11:12:39.980Z,1.8
2022-12-11T11:13:39.859Z,1.7
2022-12-11T11:14:39.908Z,1.8
2022-12-11T11:15:39.981Z,1.8
2022-12-11T11:16:39.853Z,1.7
2022-12-11T11:17:48.508Z,1.6
2022-12-11T11:18:39.941Z,1.6
2022-12-11T11:19:39.902Z,1.7
2022-12-11T11:20:39.968Z,1.7
2022-12-11T11:21:39.951Z,1.8
2022-12-11T11:22:39.866Z,1.9
2022-12-11T11:23:44.810Z,1.8
2022-12-11T11:24:39.858Z,1.8
2022-12-11T11:25:39.865Z,1.9
2022-12-11T11:27:11.698Z,1.8
2022-12-11T11:27:39.996Z,1.8
2022-12-11T11:28:39.882Z,1.8
2022-12-11T11:29:39.847Z,1.8
2022-12-11T11:30:39.905Z,1.8
2022-12-11T11:31:40.080Z,1.9
2022-12-11T11:32:39.912Z,2.1
2022-12-11T11:33:39.868Z,2.2
2022-12-11T11:34:39.936Z,2.1
2022-12-11T11:35:45.547Z,2.1
2022-12-11T11:36:39.869Z,2.3
2022-12-11T11:37:39.864Z,2.3
2022-12-11T11:38:39.987Z,2.4
2022-12-11T11:39:39.880Z,2.4
2022-12-11T11:40:39.852Z,2.3
2022-12-11T11:41:39.878Z,2.5
2022-12-11T11:42:39.984Z,2.4
2022-12-11T11:43:39.994Z,2.3
2022-12-11T11:44:39.900Z,2.1
2022-12-11T11:45:39.994Z,2.1
2022-12-11T11:46:39.925Z,2.1
2022-12-11T11:47:39.907Z,1.9
2022-12-11T11:48:39.947Z,2
2022-12-11T11:49:39.926Z,2.1
2022-12-11T11:50:39.908Z,2
2022-12-11T11:51:39.957Z,2.1
2022-12-11T11:52:39.863Z,2.1
2022-12-11T11:53:39.952Z,2
2022-12-11T11:54:39.860Z,1.9
2022-12-11T11:55:39.865Z,1.9
2022-12-11T11:56:39.974Z,1.8
2022-12-11T11:57:39.871Z,1.8
2022-12-11T11:58:39.986Z,1.8
2022-12-11T11:59:39.896Z,1.8
2022-12-11T12:00:39.895Z,1.9
2022-12-11T12:01:39.905Z,1.9
2022-12-11T12:02:39.921Z,1.9
2022-12-11T12:03:39.881Z,1.9
2022-12-11T12:04:39.922Z,1.9
2022-12-11T12:05:39.921Z,1.9
2022-12-11T12:06:39.937Z,2
2022-12-11T12:07:39.933Z,2
2022-12-11T12:08:39.855Z,2.1
2022-12-11T12:09:39.887Z,2.2
2022-12-11T12:10:39.971Z,2.2
2022-12-11T12:11:39.974Z,2.2
2022-12-11T12:12:39.861Z,2.3
2022-12-11T12:13:50.752Z,2.4
2022-12-11T12:14:55.222Z,2.4
2022-12-11T12:15:39.848Z,2.4
2022-12-11T12:16:55.361Z,2.4
2022-12-11T12:17:39.871Z,2.4
2022-12-11T12:18:39.925Z,2.4
2022-12-11T12:19:39.911Z,2.4
2022-12-11T12:20:39.922Z,2.4
2022-12-11T12:21:39.943Z,2.3
2022-12-11T12:22:39.925Z,2.4
2022-12-11T12:23:39.855Z,2.4
2022-12-11T12:24:39.950Z,2.3
2022-12-11T12:25:39.846Z,2.3
2022-12-11T12:26:39.857Z,2.3
2022-12-11T12:27:55.273Z,2.3
2022-12-11T12:28:39.868Z,2.4
2022-12-11T12:29:39.994Z,2.3
2022-12-11T12:30:39.979Z,2.4
2022-12-11T12:31:39.989Z,2.4
2022-12-11T12:32:39.897Z,2.1
2022-12-11T12:33:39.925Z,2
2022-12-11T12:34:39.934Z,2.2
2022-12-11T12:35:39.915Z,2.1
2022-12-11T12:36:39.859Z,2.1
2022-12-11T12:37:39.911Z,2.1
2022-12-11T12:38:39.925Z,2.1
2022-12-11T12:39:39.876Z,2.2
2022-12-11T12:40:39.853Z,2.3
2022-12-11T12:41:39.954Z,2.3
2022-12-11T12:42:39.980Z,2.2
2022-12-11T12:43:39.934Z,2.2
2022-12-11T12:44:39.861Z,2.2
2022-12-11T12:45:40.033Z,2.1
2022-12-11T12:46:40.001Z,2.2
2022-12-11T12:47:39.876Z,2.1
2022-12-11T12:48:39.954Z,2.1
2022-12-11T12:49:39.847Z,2.1
2022-12-11T12:50:39.927Z,2.1
2022-12-11T12:51:39.904Z,2
2022-12-11T12:52:39.864Z,2
2022-12-11T12:53:39.946Z,2
2022-12-11T12:54:39.964Z,2
2022-12-11T12:55:39.935Z,2
2022-12-11T12:56:39.950Z,2.1
2022-12-11T12:57:39.941Z,1.9
2022-12-11T12:58:39.873Z,2
2022-12-11T12:59:39.861Z,2.1
2022-12-11T13:00:39.958Z,2
2022-12-11T13:01:40.011Z,2.1
2022-12-11T13:02:39.887Z,2.1
2022-12-11T13:03:39.855Z,2.1
2022-12-11T13:04:55.505Z,2.2
2022-12-11T13:05:39.891Z,2.3
2022-12-11T13:06:39.859Z,2.4
2022-12-11T13:07:39.851Z,2.3
2022-12-11T13:08:40.099Z,2.3
2022-12-11T13:09:39.895Z,2.1
2022-12-11T13:10:39.944Z,2.1
2022-12-11T13:11:39.951Z,2.1
2022-12-11T13:12:39.863Z,2.1
2022-12-11T13:13:39.854Z,2.2
2022-12-11T13:14:39.853Z,2.1
2022-12-11T13:15:39.864Z,2.1
2022-12-11T13:16:40.022Z,2.1
2022-12-11T13:17:40.017Z,2
2022-12-11T13:18:39.876Z,2
2022-12-11T13:19:42.766Z,2
2022-12-11T13:20:39.889Z,2
2022-12-11T13:21:39.891Z,1.9
2022-12-11T13:22:39.834Z,1.9
2022-12-11T13:23:39.911Z,2
2022-12-11T13:24:39.913Z,2.1
2022-12-11T13:25:41.741Z,2.2
2022-12-11T13:26:39.934Z,2.2
2022-12-11T13:27:39.847Z,2.3
2022-12-11T13:28:39.947Z,2.2
2022-12-11T13:29:39.979Z,2.5
2022-12-11T13:30:39.968Z,2.7
2022-12-11T13:31:39.960Z,2.7
2022-12-11T13:32:39.968Z,2.9
2022-12-11T13:33:39.931Z,3.1
2022-12-11T13:34:39.894Z,3.3
2022-12-11T13:35:39.919Z,3.3
2022-12-11T13:36:40.045Z,3.6
2022-12-11T13:37:39.854Z,3.7
2022-12-11T13:38:39.861Z,3.9
2022-12-11T13:39:39.916Z,4.1
2022-12-11T13:40:39.959Z,4.2
2022-12-11T13:41:39.972Z,4.1
2022-12-11T13:42:39.943Z,4.2
2022-12-11T13:43:39.844Z,4
2022-12-11T13:44:39.833Z,3.9
2022-12-11T13:45:39.919Z,3.6
2022-12-11T13:46:39.863Z,3.4
2022-12-11T13:47:39.963Z,3.5
2022-12-11T13:48:40.029Z,3.1